Time;durP1;ratioP1;P1;durP2;ratioP2;P2;SDS_P1;SDS_P2;PMS_P1;PMS_P2;Temp;Humidity;BMP_temperature;BMP_pressure;BME280_temperature;BME280_humidity;BME280_pressure;Samples;Min_cycle;Max_cycle;Signal;HPM_P1;HPM_P2
2023/01/11 00:00:12;;;;;;;2.13;1.20;;;;;;;9.31;51.12;97622.16;5051902;28;20203;-71
2023/01/11 00:02:38;;;;;;;2.23;1.20;;;;;;;9.44;50.94;97628.94;5041080;28;20180;-71
2023/01/11 00:05:04;;;;;;;2.80;1.30;;;;;;;9.44;50.86;97627.13;5047727;28;20910;-69
2023/01/11 00:07:29;;;;;;;2.80;1.33;;;;;;;9.42;51.09;97626.44;5046977;28;20194;-70
2023/01/11 00:09:55;;;;;;;1.77;1.07;;;;;;;9.29;51.12;97616.22;5055607;28;20976;-71
2023/01/11 00:12:20;;;;;;;2.77;1.17;;;;;;;9.25;51.85;97622.69;5052279;28;20187;-70
2023/01/11 00:14:46;;;;;;;2.50;1.20;;;;;;;9.30;51.54;97625.75;5045066;28;20667;-70
2023/01/11 00:17:11;;;;;;;3.27;1.10;;;;;;;9.48;51.31;97609.38;5049643;28;20211;-71
2023/01/11 00:19:37;;;;;;;2.40;1.30;;;;;;;9.14;52.07;97612.34;5050003;28;20773;-71
2023/01/11 00:22:02;;;;;;;4.07;1.00;;;;;;;9.25;52.19;97619.25;5054846;28;20207;-68
2023/01/11 00:24:28;;;;;;;4.47;1.00;;;;;;;9.45;51.85;97620.94;5047897;28;20269;-69
2023/01/11 00:26:53;;;;;;;2.10;1.23;;;;;;;9.45;52.54;97623.56;5058281;28;20226;-69
2023/01/11 00:29:18;;;;;;;2.17;1.07;;;;;;;9.50;52.40;97616.13;5058763;28;20195;-69
2023/01/11 00:31:44;;;;;;;4.93;1.30;;;;;;;9.56;52.19;97604.31;5068912;28;20320;-69
2023/01/11 00:34:09;;;;;;;1.67;1.00;;;;;;;9.54;52.74;97601.00;5062396;28;20198;-69
2023/01/11 00:36:35;;;;;;;1.20;0.93;;;;;;;9.64;52.97;97596.59;5066872;28;20216;-70
2023/01/11 00:39:01;;;;;;;4.13;1.53;;;;;;;9.63;53.36;97594.13;5034059;28;20309;-70
2023/01/11 00:49:39;;;;;;;3.07;1.17;;;;;;;9.66;53.74;97572.88;5050193;28;20416;-70
2023/01/11 00:52:07;;;;;;;1.63;1.00;;;;;;;9.64;53.36;97556.53;5064218;28;20462;-72
2023/01/11 00:54:37;;;;;;;2.40;1.20;;;;;;;9.68;53.66;97555.25;5052471;28;20189;-71
2023/01/11 00:57:02;;;;;;;2.17;1.43;;;;;;;9.58;54.00;97552.63;5065715;28;20539;-69
2023/01/11 00:59:28;;;;;;;1.70;0.83;;;;;;;9.66;53.94;97565.88;5067463;28;20788;-70
2023/01/11 01:01:53;;;;;;;2.00;1.00;;;;;;;9.74;54.06;97562.56;5052154;28;20523;-70
2023/01/11 01:04:19;;;;;;;1.70;1.00;;;;;;;9.68;54.38;97560.50;5057781;28;20189;-70
2023/01/11 01:06:44;;;;;;;4.43;1.20;;;;;;;9.66;54.36;97554.56;5058201;28;20195;-71
2023/01/11 01:09:10;;;;;;;2.77;1.10;;;;;;;9.76;54.54;97549.34;5056421;28;20565;-70
2023/01/11 01:11:35;;;;;;;1.37;1.07;;;;;;;9.76;54.80;97554.56;5061216;28;20265;-70
2023/01/11 01:16:46;;;;;;;1.27;0.90;;;;;;;9.72;54.81;97548.78;5056071;28;20693;-70
2023/01/11 01:19:12;;;;;;;2.50;1.20;;;;;;;9.64;55.38;97554.72;5059046;28;20955;-70
2023/01/11 01:21:37;;;;;;;2.70;1.20;;;;;;;9.79;55.00;97551.69;5054825;28;20918;-71
2023/01/11 01:24:03;;;;;;;1.50;0.90;;;;;;;9.87;55.07;97546.56;5067076;28;20514;-70
2023/01/11 01:26:28;;;;;;;4.30;1.53;;;;;;;9.88;55.12;97556.06;5061349;28;20212;-70
2023/01/11 01:28:54;;;;;;;1.43;1.10;;;;;;;9.85;55.29;97558.97;5059964;28;20604;-70
2023/01/11 01:31:20;;;;;;;3.00;1.20;;;;;;;9.91;55.39;97565.44;5067595;28;20182;-71
2023/01/11 01:33:45;;;;;;;4.90;1.30;;;;;;;9.56;56.01;97567.66;5062697;28;20282;-71
2023/01/11 01:36:10;;;;;;;1.80;1.07;;;;;;;9.78;55.66;97570.97;5066795;28;20178;-70
2023/01/11 01:38:37;;;;;;;1.40;0.90;;;;;;;9.77;55.83;97561.47;5060020;28;20712;-70
2023/01/11 01:41:02;;;;;;;2.67;1.00;;;;;;;9.77;55.88;97553.59;5064672;28;20495;-70
2023/01/11 01:43:49;;;;;;;2.40;1.00;;;;;;;9.75;56.21;97560.78;5060479;28;20183;-70
2023/01/11 01:46:16;;;;;;;1.43;0.97;;;;;;;9.84;55.69;97552.91;5058341;28;20324;-70
2023/01/11 01:48:43;;;;;;;1.87;0.90;;;;;;;9.72;56.42;97546.19;5065137;28;20932;-71
2023/01/11 01:51:11;;;;;;;2.43;1.23;;;;;;;9.77;56.09;97543.13;5060533;28;20464;-71
2023/01/11 01:53:39;;;;;;;2.07;1.07;;;;;;;9.72;56.71;97542.72;5068747;28;20858;-71
2023/01/11 01:56:15;;;;;;;1.70;0.93;;;;;;;9.60;56.81;97532.38;5059235;28;20420;-70
2023/01/11 01:58:45;;;;;;;6.90;1.20;;;;;;;9.72;57.00;97524.41;5055748;28;20420;-71
2023/01/11 02:03:58;;;;;;;2.27;0.83;;;;;;;9.54;57.86;97512.03;5047165;28;20420;-71
2023/01/11 02:06:24;;;;;;;2.80;0.90;;;;;;;9.57;57.59;97513.53;5062980;28;20437;-72
2023/01/11 02:08:55;;;;;;;2.57;1.03;;;;;;;9.49;58.20;97511.59;5054498;28;20186;-69
2023/01/11 02:11:30;;;;;;;2.13;0.90;;;;;;;9.70;57.40;97506.22;5058033;28;20187;-70
2023/01/11 02:14:02;;;;;;;1.77;1.03;;;;;;;9.68;57.81;97511.59;5064858;28;20416;-69
2023/01/11 02:16:28;;;;;;;2.97;0.93;;;;;;;9.73;57.91;97510.34;5066266;28;20494;-68
2023/01/11 02:18:55;;;;;;;6.00;1.27;;;;;;;9.73;57.81;97512.97;5059194;28;20430;-69
2023/01/11 02:21:25;;;;;;;2.47;1.00;;;;;;;9.74;58.20;97502.38;5052680;28;20651;-70
2023/01/11 02:24:09;;;;;;;1.13;0.90;;;;;;;9.77;58.29;97503.88;5053317;28;20422;-70
2023/01/11 02:26:46;;;;;;;1.20;0.80;;;;;;;9.82;58.14;97493.81;5059234;28;20444;-70
2023/01/11 02:29:44;;;;;;;1.33;0.97;;;;;;;9.94;58.29;97487.47;5045205;28;20521;-71
2023/01/11 02:32:09;;;;;;;1.30;0.83;;;;;;;9.89;58.46;97486.22;5062871;28;21039;-71
2023/01/11 02:34:46;;;;;;;3.50;0.97;;;;;;;9.86;58.81;97479.47;5063702;28;20504;-69
2023/01/11 02:37:31;;;;;;;1.30;0.70;;;;;;;9.93;58.87;97490.19;5040190;28;20218;-70
2023/01/11 02:40:06;;;;;;;2.17;1.00;;;;;;;9.89;58.91;97473.97;5066822;28;20446;-70
2023/01/11 02:45:24;;;;;;;2.00;0.60;;;;;;;10.11;58.91;97478.03;5048078;28;20461;-70
2023/01/11 02:47:56;;;;;;;3.37;0.80;;;;;;;10.11;58.96;97482.44;5061040;28;20523;-70
2023/01/11 02:50:36;;;;;;;3.00;0.90;;;;;;;10.12;59.17;97479.69;5054705;28;20421;-69
2023/01/11 02:53:12;;;;;;;1.73;0.70;;;;;;;10.12;59.34;97484.09;5059059;28;20412;-69
2023/01/11 02:55:41;;;;;;;1.13;0.67;;;;;;;10.00;59.32;97486.06;5051990;28;20416;-70
2023/01/11 02:58:08;;;;;;;1.70;0.80;;;;;;;10.18;59.41;97477.44;5062181;28;20517;-69
2023/01/11 03:00:37;;;;;;;1.73;0.80;;;;;;;10.15;59.39;97478.56;5062494;28;20425;-70
2023/01/11 03:03:16;;;;;;;1.00;0.70;;;;;;;10.16;59.47;97480.22;5063991;28;20417;-69
2023/01/11 03:05:46;;;;;;;1.37;0.77;;;;;;;10.08;60.02;97465.22;5059339;28;20448;-70
2023/01/11 03:08:50;;;;;;;3.03;0.93;;;;;;;10.15;59.95;97471.53;5061003;28;20453;-70
2023/01/11 03:12:50;;;;;;;3.47;0.73;;;;;;;10.12;60.25;97463.97;5058781;28;20420;-71
2023/01/11 03:14:47;;;;;;;1.27;0.83;;;;;;;10.21;60.04;97464.88;5064831;28;20507;-69
2023/01/11 03:17:31;;;;;;;1.30;0.90;;;;;;;10.26;60.05;97470.53;5063407;28;20875;-71
2023/01/11 03:20:20;;;;;;;5.20;0.80;;;;;;;10.28;60.01;97467.75;5060997;28;20912;-71
2023/01/11 03:23:13;;;;;;;1.30;0.70;;;;;;;10.34;59.79;97466.34;5053481;28;20509;-71
2023/01/11 03:25:52;;;;;;;0.90;0.60;;;;;;;10.29;60.18;97469.41;5066452;28;20413;-71
2023/01/11 03:28:37;;;;;;;1.70;0.60;;;;;;;10.11;60.81;97470.19;5069813;28;20535;-69
2023/01/11 03:31:21;;;;;;;3.53;0.70;;;;;;;10.20;60.89;97465.88;5061335;28;20429;-67
2023/01/11 03:33:54;;;;;;;1.30;0.67;;;;;;;10.23;60.58;97470.81;5053392;28;20826;-68
2023/01/11 03:36:49;;;;;;;1.70;0.60;;;;;;;10.27;60.61;97466.13;5063450;28;20480;-69
2023/01/11 03:39:35;;;;;;;1.30;0.60;;;;;;;10.25;60.72;97466.25;5060248;28;20431;-71
2023/01/11 03:42:03;;;;;;;1.50;0.70;;;;;;;10.36;60.60;97464.41;5072829;28;20448;-69
2023/01/11 03:44:33;;;;;;;1.50;0.70;;;;;;;10.34;60.65;97467.19;5060192;28;20420;-71
2023/01/11 03:47:04;;;;;;;1.37;0.70;;;;;;;10.40;60.39;97465.81;5060705;28;20449;-70
2023/01/11 03:49:40;;;;;;;1.07;0.63;;;;;;;10.48;60.33;97458.06;5065419;28;20421;-70
2023/01/11 03:52:08;;;;;;;0.80;0.60;;;;;;;10.42;60.39;97456.03;5067467;28;20959;-70
2023/01/11 03:54:34;;;;;;;2.40;0.87;;;;;;;10.48;60.40;97450.19;5066858;28;20417;-70
2023/01/11 03:57:13;;;;;;;0.80;0.60;;;;;;;10.54;60.24;97444.38;5067018;28;20967;-69
2023/01/11 03:59:39;;;;;;;1.63;0.80;;;;;;;10.49;60.42;97443.16;5066278;28;20429;-69
2023/01/11 04:02:13;;;;;;;1.00;0.70;;;;;;;10.55;60.29;97440.78;5061942;28;20509;-70
2023/01/11 04:04:39;;;;;;;1.83;0.60;;;;;;;10.55;60.22;97430.31;5058900;28;20177;-70
2023/01/11 04:07:04;;;;;;;0.80;0.60;;;;;;;10.49;60.61;97432.69;5041730;28;20488;-70
2023/01/11 04:09:30;;;;;;;1.17;0.70;;;;;;;10.48;60.53;97436.28;5071012;28;20212;-70
2023/01/11 04:11:55;;;;;;;0.90;0.70;;;;;;;10.48;60.86;97429.22;5063194;28;20218;-70
2023/01/11 04:14:21;;;;;;;0.90;0.60;;;;;;;10.43;60.73;97418.38;5071031;28;20320;-70
2023/01/11 04:16:46;;;;;;;0.90;0.70;;;;;;;10.50;60.67;97426.47;5066933;28;20206;-71
2023/01/11 04:19:12;;;;;;;1.53;0.60;;;;;;;10.58;60.35;97414.28;5069346;28;20273;-69
2023/01/11 04:21:37;;;;;;;1.17;0.60;;;;;;;10.58;60.37;97413.47;5062355;28;20189;-69
2023/01/11 04:24:02;;;;;;;1.30;0.60;;;;;;;10.40;60.90;97418.66;5061949;28;20202;-69
2023/01/11 04:26:28;;;;;;;5.43;0.70;;;;;;;10.48;60.61;97416.13;5069611;28;20552;-72
2023/01/11 04:28:53;;;;;;;1.23;0.77;;;;;;;10.42;60.96;97414.09;5064947;28;20295;-69
2023/01/11 04:31:19;;;;;;;1.00;0.50;;;;;;;10.49;60.82;97412.53;5054434;28;20209;-71
2023/01/11 04:33:44;;;;;;;1.20;0.57;;;;;;;10.51;60.73;97410.59;5067381;28;20277;-70
2023/01/11 04:36:10;;;;;;;1.83;0.70;;;;;;;10.44;61.26;97412.97;5061590;28;20297;-69
2023/01/11 04:38:36;;;;;;;1.20;0.70;;;;;;;10.28;62.18;97421.44;5063640;28;20183;-71
2023/01/11 04:43:46;;;;;;;1.20;0.67;;;;;;;10.48;61.57;97418.75;5067842;28;20273;-70
2023/01/11 04:46:11;;;;;;;1.00;0.70;;;;;;;10.49;61.81;97417.78;5059384;28;20420;-72
2023/01/11 04:48:40;;;;;;;1.17;0.60;;;;;;;10.54;61.62;97420.78;5067673;28;20178;-70
2023/01/11 04:51:07;;;;;;;1.97;0.70;;;;;;;10.58;61.60;97413.47;5064684;28;20753;-70
2023/01/11 04:53:32;;;;;;;1.47;0.77;;;;;;;10.48;62.23;97410.06;5044232;28;20517;-70
2023/01/11 04:56:05;;;;;;;1.43;0.60;;;;;;;10.56;62.20;97405.75;5050921;28;20553;-69
2023/01/11 04:58:31;;;;;;;1.03;0.60;;;;;;;10.65;62.08;97392.72;5042982;28;20292;-70
2023/01/11 05:00:57;;;;;;;3.13;0.80;;;;;;;10.66;62.18;97382.09;5055014;28;20427;-69
2023/01/11 05:03:22;;;;;;;1.10;0.63;;;;;;;10.80;61.95;97393.03;5050733;28;21026;-68
2023/01/11 05:05:55;;;;;;;3.77;0.80;;;;;;;10.77;62.30;97398.59;5054034;28;20179;-70
2023/01/11 05:08:21;;;;;;;1.33;0.80;;;;;;;10.76;62.36;97397.75;5049938;28;20191;-70
2023/01/11 05:10:58;;;;;;;1.03;0.70;;;;;;;10.81;62.35;97394.69;5051714;28;20462;-70
2023/01/11 05:13:40;;;;;;;1.23;0.80;;;;;;;10.86;62.31;97398.50;5049765;28;20186;-69
2023/01/11 05:16:26;;;;;;;1.90;0.60;;;;;;;10.82;62.60;97386.69;5051263;28;20933;-72
2023/01/11 05:18:53;;;;;;;1.00;0.80;;;;;;;10.74;62.85;97391.81;5055391;28;20421;-71
2023/01/11 05:21:20;;;;;;;1.80;0.53;;;;;;;10.79;62.51;97381.72;5050672;28;20425;-71
2023/01/11 05:23:46;;;;;;;1.73;0.70;;;;;;;10.84;62.47;97381.28;5050800;28;20417;-73
2023/01/11 05:26:16;;;;;;;0.90;0.57;;;;;;;10.85;62.21;97377.69;5049843;28;20513;-72
2023/01/11 05:28:42;;;;;;;2.60;0.73;;;;;;;10.88;62.34;97369.53;5048131;28;20179;-72
2023/01/11 05:31:07;;;;;;;4.73;0.80;;;;;;;10.85;62.64;97375.88;5043172;28;20441;-71
2023/01/11 05:33:33;;;;;;;0.80;0.60;;;;;;;10.74;62.88;97374.31;5032669;28;20437;-71
2023/01/11 05:36:00;;;;;;;1.20;0.80;;;;;;;10.71;63.30;97373.78;5050965;28;20212;-72
2023/01/11 05:38:26;;;;;;;0.90;0.80;;;;;;;10.64;63.81;97383.22;5032182;28;20245;-70
2023/01/11 05:41:00;;;;;;;1.10;0.80;;;;;;;10.77;63.17;97383.69;5051217;28;20422;-70
2023/01/11 05:43:26;;;;;;;2.90;0.90;;;;;;;10.76;63.19;97382.03;5050750;28;20183;-71
2023/01/11 05:45:52;;;;;;;0.90;0.70;;;;;;;10.77;63.30;97372.38;5042318;28;20430;-70
2023/01/11 05:48:18;;;;;;;1.00;0.70;;;;;;;10.79;63.23;97376.50;5049631;28;20469;-70
2023/01/11 05:50:43;;;;;;;0.80;0.60;;;;;;;10.80;63.16;97383.38;5050712;28;20183;-71
2023/01/11 05:53:09;;;;;;;1.27;0.87;;;;;;;10.82;63.22;97370.94;5049795;28;20190;-70
2023/01/11 05:55:35;;;;;;;1.37;1.00;;;;;;;10.80;63.27;97377.28;5050039;28;20729;-70
2023/01/11 05:58:00;;;;;;;1.00;0.70;;;;;;;10.82;63.34;97373.56;5053787;28;20286;-69
2023/01/11 06:00:26;;;;;;;1.77;0.70;;;;;;;10.79;64.19;97376.50;5049625;28;20666;-71
2023/01/11 06:02:51;;;;;;;1.53;0.70;;;;;;;10.64;64.09;97363.09;5050522;28;20620;-70
2023/01/11 06:05:17;;;;;;;1.47;0.87;;;;;;;10.76;64.15;97355.81;5048404;28;20206;-70
2023/01/11 06:07:42;;;;;;;1.23;0.90;;;;;;;10.80;64.13;97346.69;5046529;28;20241;-71
2023/01/11 06:10:08;;;;;;;1.30;0.60;;;;;;;10.81;64.01;97350.09;5033802;28;20601;-69
2023/01/11 06:12:33;;;;;;;1.57;0.70;;;;;;;10.86;63.96;97338.19;5050367;28;20179;-70
2023/01/11 06:14:59;;;;;;;0.80;0.53;;;;;;;10.81;64.30;97339.63;5047871;28;20446;-70
2023/01/11 06:17:24;;;;;;;1.60;0.70;;;;;;;10.86;64.19;97321.66;5048679;28;20211;-70
2023/01/11 06:19:50;;;;;;;1.00;0.70;;;;;;;10.89;63.60;97319.53;5057034;28;20262;-70
2023/01/11 06:22:15;;;;;;;0.90;0.60;;;;;;;10.81;64.19;97322.13;5049692;28;20274;-70
2023/01/11 06:24:41;;;;;;;1.53;0.80;;;;;;;10.88;64.01;97311.84;5049693;28;20615;-69
2023/01/11 06:27:06;;;;;;;1.50;1.00;;;;;;;10.87;64.17;97311.00;5049901;28;20204;-70
2023/01/11 06:29:32;;;;;;;1.40;1.30;;;;;;;10.89;64.01;97318.75;5043457;28;20179;-70
2023/01/11 06:31:57;;;;;;;1.77;1.23;;;;;;;10.85;64.07;97323.44;5047474;28;20196;-71
2023/01/11 06:34:23;;;;;;;1.20;0.90;;;;;;;10.92;63.81;97323.66;5044736;28;20184;-71
2023/01/11 06:36:48;;;;;;;2.07;1.57;;;;;;;11.00;63.65;97333.38;5049570;28;20752;-71
2023/01/11 06:39:13;;;;;;;3.77;2.30;;;;;;;10.98;63.49;97324.84;5048958;28;20712;-71
2023/01/11 06:41:39;;;;;;;4.93;2.43;;;;;;;11.01;63.41;97317.53;5046680;28;20179;-71
2023/01/11 06:44:05;;;;;;;5.47;2.60;;;;;;;11.02;63.43;97321.78;5046442;28;20188;-69
2023/01/11 06:46:30;;;;;;;4.07;1.40;;;;;;;10.95;63.82;97314.69;5047964;28;20203;-69
2023/01/11 06:48:56;;;;;;;1.83;1.17;;;;;;;10.89;63.87;97313.50;5051493;28;20201;-70
2023/01/11 06:51:21;;;;;;;3.50;1.33;;;;;;;10.90;64.04;97309.88;5053254;28;20174;-70
2023/01/11 06:53:47;;;;;;;4.70;1.50;;;;;;;10.91;63.96;97314.97;5053451;28;20258;-69
2023/01/11 06:56:14;;;;;;;2.33;1.30;;;;;;;10.98;63.64;97316.97;5052610;28;20233;-70
2023/01/11 06:58:39;;;;;;;1.50;1.10;;;;;;;11.01;63.64;97314.91;5043214;28;20708;-69
2023/01/11 07:01:05;;;;;;;1.70;1.00;;;;;;;11.04;63.36;97311.13;5053570;28;20421;-69
2023/01/11 07:03:30;;;;;;;1.67;1.00;;;;;;;11.14;63.24;97311.88;5035317;28;20655;-70
2023/01/11 07:05:56;;;;;;;2.13;0.93;;;;;;;11.11;63.15;97309.53;5042634;28;20755;-71
2023/01/11 07:08:23;;;;;;;1.60;0.90;;;;;;;11.10;63.14;97309.69;5051865;28;20194;-71
2023/01/11 07:10:49;;;;;;;2.73;1.10;;;;;;;11.05;63.28;97324.09;5052093;28;20782;-70
2023/01/11 07:13:16;;;;;;;1.30;1.10;;;;;;;11.14;62.96;97318.91;5053351;28;20425;-70
2023/01/11 07:15:47;;;;;;;2.40;1.03;;;;;;;11.12;63.00;97321.69;5053767;28;20266;-70
2023/01/11 07:18:13;;;;;;;2.90;1.77;;;;;;;11.21;62.79;97318.13;5053253;28;20493;-70
2023/01/11 07:20:38;;;;;;;5.70;1.53;;;;;;;11.20;62.71;97310.44;5061141;28;20509;-69
2023/01/11 07:23:06;;;;;;;5.27;2.27;;;;;;;11.10;63.04;97304.47;5054108;28;20493;-70
2023/01/11 07:25:31;;;;;;;4.23;1.93;;;;;;;11.05;63.09;97304.91;5045499;28;20186;-70
2023/01/11 07:27:59;;;;;;;3.80;1.73;;;;;;;11.14;63.11;97305.81;5044095;28;20429;-70
2023/01/11 07:30:25;;;;;;;4.50;2.17;;;;;;;11.20;62.53;97306.03;5039199;28;20188;-70
2023/01/11 07:32:50;;;;;;;3.37;1.90;;;;;;;11.25;62.46;97302.94;5046905;28;20976;-71
2023/01/11 07:35:16;;;;;;;3.77;1.50;;;;;;;11.20;62.76;97315.69;5043848;28;20422;-71
2023/01/11 07:37:41;;;;;;;3.30;1.97;;;;;;;11.12;63.05;97297.25;5039007;28;20694;-71
2023/01/11 07:40:07;;;;;;;5.00;2.10;;;;;;;11.19;62.67;97309.63;5043018;28;20816;-70
2023/01/11 07:45:17;;;;;;;6.57;1.13;;;;;;;11.34;62.25;97307.25;5040031;28;20262;-70
2023/01/11 07:47:42;;;;;;;2.80;1.60;;;;;;;11.36;62.16;97313.16;5052968;28;20528;-71
2023/01/11 07:50:08;;;;;;;1.97;1.10;;;;;;;11.20;62.68;97311.28;5052957;28;20212;-71
2023/01/11 07:52:34;;;;;;;1.90;1.20;;;;;;;11.34;62.35;97298.56;5053443;28;20664;-71
2023/01/11 07:55:01;;;;;;;1.40;1.10;;;;;;;11.52;61.76;97303.75;5052663;28;20406;-71
2023/01/11 07:57:28;;;;;;;4.60;2.17;;;;;;;11.54;61.70;97299.13;5050958;28;20222;-71
2023/01/11 07:59:53;;;;;;;1.70;1.30;;;;;;;11.57;61.98;97300.66;5050771;28;20421;-71
2023/01/11 08:02:19;;;;;;;2.07;1.40;;;;;;;11.63;61.49;97310.50;5052746;28;20792;-71
2023/01/11 08:04:44;;;;;;;1.60;1.20;;;;;;;11.70;61.78;97308.09;5052663;28;20678;-71
2023/01/11 08:07:10;;;;;;;1.90;0.97;;;;;;;11.74;61.73;97315.50;5050598;28;20226;-70
2023/01/11 08:09:35;;;;;;;1.73;1.03;;;;;;;11.73;61.40;97311.22;5053379;28;20183;-71
2023/01/11 08:14:45;;;;;;;2.00;1.50;;;;;;;11.74;61.63;97318.13;5052851;28;20171;-70
2023/01/11 08:17:13;;;;;;;1.80;1.10;;;;;;;11.77;61.19;97317.81;5060180;28;20472;-69
2023/01/11 08:19:39;;;;;;;1.73;1.27;;;;;;;11.92;60.69;97310.16;5051037;28;20214;-73
2023/01/11 08:22:05;;;;;;;1.50;1.20;;;;;;;11.94;60.79;97302.94;5042160;28;20817;-71
2023/01/11 08:24:30;;;;;;;1.83;1.27;;;;;;;11.98;60.97;97321.84;5035490;28;20421;-71
2023/01/11 08:26:56;;;;;;;1.50;1.37;;;;;;;11.97;60.69;97301.81;5041300;28;20492;-70
2023/01/11 08:29:22;;;;;;;1.87;1.27;;;;;;;11.90;60.77;97301.63;5044041;28;20180;-72
2023/01/11 08:31:48;;;;;;;1.63;0.97;;;;;;;11.97;60.59;97317.56;5034169;28;20202;-72
2023/01/11 08:34:13;;;;;;;1.73;1.40;;;;;;;11.99;60.84;97323.50;5041574;28;20465;-72
2023/01/11 08:36:39;;;;;;;3.17;1.00;;;;;;;11.99;60.69;97318.25;5041049;28;20206;-73
2023/01/11 08:39:04;;;;;;;1.33;1.13;;;;;;;12.03;60.96;97319.59;5042575;28;20574;-70
2023/01/11 08:41:31;;;;;;;2.33;1.30;;;;;;;12.10;60.49;97322.41;5048860;28;20175;-72
2023/01/11 08:43:57;;;;;;;3.43;1.60;;;;;;;12.11;60.56;97308.28;5041475;28;20188;-71
2023/01/11 08:46:22;;;;;;;1.57;1.03;;;;;;;12.16;60.59;97305.19;5043029;28;20520;-71
2023/01/11 08:48:47;;;;;;;2.53;0.97;;;;;;;12.14;60.45;97298.28;5049403;28;20203;-70
2023/01/11 08:51:13;;;;;;;1.20;0.70;;;;;;;12.12;60.44;97299.44;5050946;28;20942;-71
2023/01/11 08:53:39;;;;;;;2.80;1.00;;;;;;;12.17;60.84;97293.69;5063503;28;20657;-71
2023/01/11 08:56:04;;;;;;;3.10;1.10;;;;;;;12.13;60.86;97315.00;5055629;28;20596;-73
2023/01/11 08:58:30;;;;;;;1.47;0.90;;;;;;;12.16;60.72;97300.72;5051313;28;20199;-71
2023/01/11 09:01:01;;;;;;;1.63;0.73;;;;;;;12.34;60.42;97307.69;5051460;28;20191;-71
2023/01/11 09:03:28;;;;;;;2.53;0.70;;;;;;;12.32;60.60;97301.75;5050030;28;20209;-73
2023/01/11 09:05:55;;;;;;;1.53;0.70;;;;;;;12.37;60.62;97310.81;5050650;28;20429;-69
2023/01/11 09:08:21;;;;;;;1.83;0.73;;;;;;;12.45;60.28;97310.00;5051123;28;20460;-72
2023/01/11 09:10:47;;;;;;;1.10;0.70;;;;;;;12.43;60.00;97302.28;5051103;28;20796;-72
2023/01/11 09:13:12;;;;;;;1.57;0.97;;;;;;;12.40;60.39;97307.06;5031122;28;20437;-69
2023/01/11 09:15:38;;;;;;;1.77;1.10;;;;;;;12.42;60.17;97310.31;5033959;28;20179;-70
2023/01/11 09:18:04;;;;;;;1.97;1.30;;;;;;;12.46;60.39;97308.22;5049932;28;20205;-71
2023/01/11 09:20:29;;;;;;;2.13;1.10;;;;;;;12.32;60.73;97309.66;5057721;28;20175;-71
2023/01/11 09:22:55;;;;;;;1.37;0.80;;;;;;;12.37;60.31;97299.50;5051463;28;20191;-71
2023/01/11 09:25:21;;;;;;;1.20;0.90;;;;;;;12.37;60.51;97313.44;5050511;28;20178;-71
2023/01/11 09:27:48;;;;;;;1.43;0.97;;;;;;;12.52;59.73;97308.38;5050751;28;20235;-71
2023/01/11 09:30:17;;;;;;;3.77;1.00;;;;;;;12.57;59.74;97307.91;5051015;28;20546;-71
2023/01/11 09:32:44;;;;;;;1.30;0.90;;;;;;;12.49;59.86;97318.38;5051252;28;20967;-72
2023/01/11 09:35:10;;;;;;;3.00;1.23;;;;;;;12.52;59.76;97310.19;5050505;28;20425;-69
2023/01/11 09:37:38;;;;;;;1.00;0.90;;;;;;;12.54;59.82;97310.84;5050559;28;21006;-71
2023/01/11 09:40:05;;;;;;;5.50;1.20;;;;;;;12.62;59.30;97310.03;5046958;28;20186;-71
2023/01/11 09:42:36;;;;;;;1.20;0.90;;;;;;;12.70;59.40;97308.25;5051783;28;20937;-71
2023/01/11 09:45:06;;;;;;;1.70;0.80;;;;;;;12.71;59.10;97309.91;5044114;28;20459;-71
2023/01/11 09:47:42;;;;;;;2.57;1.10;;;;;;;12.63;59.26;97315.13;5043983;28;20485;-71
2023/01/11 09:50:20;;;;;;;2.37;1.40;;;;;;;12.79;59.11;97311.69;5055496;28;20452;-71
2023/01/11 09:52:53;;;;;;;1.17;0.93;;;;;;;12.72;58.85;97313.31;5047262;28;20414;-72
2023/01/11 09:55:26;;;;;;;1.53;1.03;;;;;;;12.78;58.75;97311.84;5050469;28;20468;-70
2023/01/11 09:58:07;;;;;;;2.30;1.00;;;;;;;12.87;58.61;97303.81;5049016;28;20493;-70
2023/01/11 10:00:54;;;;;;;3.07;1.17;;;;;;;12.89;58.24;97308.91;5042820;28;20493;-70
2023/01/11 10:03:52;;;;;;;3.77;0.90;;;;;;;12.79;58.39;97313.50;5049681;28;20921;-71
2023/01/11 10:06:25;;;;;;;3.10;1.10;;;;;;;12.76;58.60;97317.28;5045121;28;20436;-71
2023/01/11 10:09:12;;;;;;;1.20;0.90;;;;;;;12.85;58.64;97312.84;5058158;28;20418;-72
2023/01/11 10:11:44;;;;;;;2.93;1.40;;;;;;;12.97;58.21;97316.81;5051350;28;21009;-71
2023/01/11 10:14:17;;;;;;;2.60;1.50;;;;;;;12.96;58.25;97320.41;5057996;28;20444;-72
2023/01/11 10:17:15;;;;;;;3.93;2.03;;;;;;;12.84;58.52;97309.38;5044913;28;20465;-71
2023/01/11 10:19:47;;;;;;;2.50;1.27;;;;;;;12.97;58.07;97318.59;5008644;28;20488;-71
2023/01/11 10:22:22;;;;;;;5.67;2.40;;;;;;;12.96;58.33;97315.16;5040714;28;20429;-72
2023/01/11 10:24:59;;;;;;;4.13;1.27;;;;;;;12.94;58.25;97316.28;5023700;28;20492;-72
2023/01/11 10:27:29;;;;;;;1.60;0.80;;;;;;;13.04;58.39;97309.06;5028905;28;20442;-71
2023/01/11 10:30:32;;;;;;;2.33;1.10;;;;;;;12.96;58.12;97312.53;5042846;28;20429;-71
2023/01/11 10:33:24;;;;;;;2.73;1.40;;;;;;;13.06;58.08;97312.34;5043560;28;20784;-70
2023/01/11 10:36:20;;;;;;;3.10;1.10;;;;;;;13.10;58.08;97318.13;5044675;28;20851;-72
2023/01/11 10:39:02;;;;;;;1.77;1.10;;;;;;;13.13;58.09;97308.06;5043012;28;20473;-71
2023/01/11 10:41:45;;;;;;;2.90;1.20;;;;;;;13.12;58.15;97301.16;5049542;28;20428;-71
2023/01/11 10:44:23;;;;;;;2.90;0.90;;;;;;;13.14;57.83;97303.63;5040978;28;20422;-71
2023/01/11 10:46:50;;;;;;;1.30;0.93;;;;;;;13.09;58.16;97300.69;5049453;28;20446;-71
2023/01/11 10:49:37;;;;;;;2.13;1.10;;;;;;;13.10;58.19;97303.13;5047756;28;20477;-71
2023/01/11 10:52:14;;;;;;;1.80;1.00;;;;;;;13.04;58.34;97307.25;5043811;28;20448;-71
2023/01/11 10:54:44;;;;;;;2.90;1.33;;;;;;;13.15;58.04;97300.84;5027975;28;20794;-71
2023/01/11 10:57:37;;;;;;;2.90;1.10;;;;;;;13.20;58.26;97300.34;5047714;28;20528;-69
2023/01/11 11:00:23;;;;;;;1.77;1.07;;;;;;;13.23;58.14;97297.38;5048637;28;20953;-70
2023/01/11 11:02:58;;;;;;;1.87;0.90;;;;;;;13.08;58.65;97291.13;5042780;28;20410;-71
2023/01/11 11:05:44;;;;;;;1.93;1.40;;;;;;;13.25;58.34;97294.56;5049512;28;20428;-71
2023/01/11 11:08:14;;;;;;;3.70;1.60;;;;;;;13.22;58.72;97295.72;5049176;28;20468;-70
2023/01/11 11:10:53;;;;;;;1.60;1.30;;;;;;;13.14;58.93;97298.34;5050476;28;20439;-71
2023/01/11 11:13:25;;;;;;;2.90;1.30;;;;;;;13.18;59.05;97295.22;5049801;28;20999;-70
2023/01/11 11:15:53;;;;;;;2.67;1.13;;;;;;;13.12;59.62;97290.63;5050359;28;20422;-71
2023/01/11 11:18:19;;;;;;;2.10;1.57;;;;;;;13.20;59.31;97292.44;5049684;28;21061;-70
2023/01/11 11:20:45;;;;;;;1.50;1.17;;;;;;;13.30;59.39;97281.72;5056740;28;20418;-71
2023/01/11 11:23:16;;;;;;;1.50;1.20;;;;;;;13.30;60.00;97284.34;5048507;28;20190;-70
2023/01/11 11:25:47;;;;;;;1.57;1.10;;;;;;;13.26;60.10;97280.44;5048398;28;20527;-71
2023/01/11 11:28:21;;;;;;;1.50;1.20;;;;;;;13.13;60.58;97288.81;5054472;28;20532;-70
2023/01/11 11:30:48;;;;;;;2.53;1.20;;;;;;;13.30;60.51;97271.19;5058187;28;20504;-71
2023/01/11 11:33:16;;;;;;;1.93;0.93;;;;;;;13.25;60.63;97271.69;5054178;28;20520;-71
2023/01/11 11:35:44;;;;;;;1.87;1.20;;;;;;;13.37;60.66;97272.97;5051435;28;20429;-70
2023/01/11 11:38:24;;;;;;;2.47;1.03;;;;;;;13.34;60.93;97273.34;5051931;28;21003;-70
2023/01/11 11:41:05;;;;;;;1.40;1.00;;;;;;;13.39;60.78;97275.47;5057268;28;20418;-72
2023/01/11 11:43:32;;;;;;;1.87;1.00;;;;;;;13.46;60.33;97265.91;5053053;28;20444;-70
2023/01/11 11:46:03;;;;;;;1.17;0.90;;;;;;;13.47;60.57;97266.75;5053353;28;20501;-70
2023/01/11 11:48:33;;;;;;;2.30;1.10;;;;;;;13.41;61.09;97270.06;5052016;28;20445;-71
2023/01/11 11:51:02;;;;;;;2.37;1.00;;;;;;;13.49;61.06;97270.00;5053715;28;20429;-70
2023/01/11 11:53:35;;;;;;;2.23;1.00;;;;;;;13.49;61.22;97267.38;5063967;28;20419;-70
2023/01/11 11:56:14;;;;;;;2.03;1.50;;;;;;;13.34;61.92;97273.34;5057185;28;20528;-70
2023/01/11 11:58:41;;;;;;;2.10;1.30;;;;;;;13.49;61.97;97267.38;5052754;28;20507;-70
2023/01/11 12:01:19;;;;;;;1.20;1.07;;;;;;;13.41;62.09;97270.06;5051014;28;20425;-71
2023/01/11 12:03:44;;;;;;;3.07;1.10;;;;;;;13.46;62.04;97255.38;5046799;28;20478;-70
2023/01/11 12:06:10;;;;;;;1.17;0.90;;;;;;;13.42;62.91;97261.16;5054964;28;20430;-70
2023/01/11 12:08:36;;;;;;;6.00;1.00;;;;;;;13.48;62.85;97252.59;5063979;28;20681;-70
2023/01/11 12:11:04;;;;;;;1.67;0.90;;;;;;;13.50;62.96;97255.88;5053743;28;20245;-70